Time;durP1;ratioP1;P1;durP2;ratioP2;P2;SDS_P1;SDS_P2;PMS_P1;PMS_P2;Temp;Humidity;BMP_temperature;BMP_pressure;BME280_temperature;BME280_humidity;BME280_pressure;Samples;Min_cycle;Max_cycle;Signal;HPM_P1;HPM_P2
2023/12/11 21:06:06;;;;;;;1.20;1.10;;;9.80;97.30;;;;;;5080278;27;20659;-56
2023/12/11 21:08:32;;;;;;;1.97;1.87;;;9.60;97.30;;;;;;5079879;28;25199;-56
2023/12/11 21:10:57;;;;;;;1.20;1.10;;;9.90;97.30;;;;;;5079792;28;20206;-56
2023/12/11 21:13:23;;;;;;;1.20;1.10;;;9.90;97.30;;;;;;5080602;28;20447;-56
2023/12/11 21:15:48;;;;;;;1.07;0.97;;;9.80;97.30;;;;;;5079954;28;20464;-56
2023/12/11 21:18:14;;;;;;;1.20;1.10;;;9.70;97.30;;;;;;5081316;28;20213;-56
2023/12/11 21:20:39;;;;;;;0.90;0.80;;;9.60;97.30;;;;;;5083099;28;20207;-56
2023/12/11 21:23:05;;;;;;;1.10;1.00;;;9.60;97.30;;;;;;5098627;28;20174;-56
2023/12/11 21:25:32;;;;;;;4.63;2.93;;;9.60;97.30;;;;;;5102683;28;20233;-56
2023/12/11 21:27:57;;;;;;;1.10;1.00;;;9.70;97.30;;;;;;5108172;28;20653;-56
2023/12/11 21:30:23;;;;;;;1.00;0.90;;;9.50;97.30;;;;;;5109934;28;20917;-56
2023/12/11 21:32:48;;;;;;;1.20;1.10;;;9.60;97.30;;;;;;5104318;28;20273;-56
2023/12/11 21:35:14;;;;;;;1.10;1.10;;;9.50;97.30;;;;;;5103242;28;20182;-55
2023/12/11 21:37:39;;;;;;;1.30;1.20;;;9.30;97.30;;;;;;5103601;28;20265;-56
2023/12/11 21:40:05;;;;;;;1.40;1.30;;;9.20;97.30;;;;;;5103707;28;20230;-57
2023/12/11 21:42:31;;;;;;;10.30;1.20;;;9.30;97.30;;;;;;5103533;28;20273;-56
2023/12/11 21:44:58;;;;;;;1.20;1.10;;;9.30;97.30;;;;;;5097489;28;20983;-55
2023/12/11 21:47:24;;;;;;;1.00;0.90;;;9.30;97.30;;;;;;5104830;28;20420;-56
2023/12/11 21:49:50;;;;;;;1.00;0.90;;;9.30;97.30;;;;;;5107339;28;20419;-55
2023/12/11 21:52:15;;;;;;;1.60;1.57;;;9.30;97.30;;;;;;5108531;28;20197;-55
2023/12/11 21:54:41;;;;;;;1.70;1.20;;;9.10;97.30;;;;;;5103406;28;20174;-55
2023/12/11 21:57:06;;;;;;;0.90;0.80;;;9.30;97.30;;;;;;5107677;28;20190;-56
2023/12/11 21:59:32;;;;;;;2.73;1.80;;;9.10;97.30;;;;;;5107589;28;20178;-55
2023/12/11 22:01:57;;;;;;;3.30;2.50;;;9.30;97.30;;;;;;5106529;28;20209;-55
2023/12/11 22:04:23;;;;;;;3.23;3.03;;;9.40;97.30;;;;;;5104136;28;20262;-55
2023/12/11 22:06:48;;;;;;;1.40;1.30;;;9.60;97.30;;;;;;5110588;28;20193;-56
2023/12/11 22:09:14;;;;;;;0.90;0.80;;;9.50;97.30;;;;;;5104046;28;20182;-55
2023/12/11 22:11:39;;;;;;;1.93;1.83;;;9.50;97.30;;;;;;5101522;27;20559;-56
2023/12/11 22:14:05;;;;;;;2.60;1.53;;;9.30;97.30;;;;;;5094015;27;20185;-56
2023/12/11 22:16:31;;;;;;;6.23;1.83;;;9.50;97.30;;;;;;5087604;28;20171;-56
2023/12/11 22:18:56;;;;;;;1.57;1.50;;;9.40;97.30;;;;;;5076095;28;20214;-64
2023/12/11 22:21:26;;;;;;;6.70;1.43;;;9.50;97.30;;;;;;5078547;28;20694;-63
2023/12/11 22:23:52;;;;;;;0.90;0.80;;;9.10;97.30;;;;;;5089108;28;20703;-62
2023/12/11 22:26:18;;;;;;;1.03;0.93;;;8.80;97.30;;;;;;5087569;28;20908;-63
2023/12/11 22:28:44;;;;;;;1.10;1.00;;;8.70;97.30;;;;;;5085135;28;20454;-63
2023/12/11 22:31:11;;;;;;;1.10;1.00;;;8.60;97.30;;;;;;5081461;28;20457;-63
2023/12/11 22:33:36;;;;;;;1.40;1.30;;;8.40;97.30;;;;;;5077481;28;20186;-64
2023/12/11 22:36:03;;;;;;;1.53;1.13;;;8.40;97.30;;;;;;5088902;28;20440;-62
2023/12/11 22:38:28;;;;;;;1.70;1.37;;;8.30;97.30;;;;;;5089773;28;20642;-64
2023/12/11 22:40:55;;;;;;;1.00;0.90;;;8.30;97.30;;;;;;5089683;28;20544;-64
2023/12/11 22:43:21;;;;;;;1.00;0.90;;;8.20;97.30;;;;;;5085854;28;20265;-63
2023/12/11 22:45:47;;;;;;;1.37;1.27;;;8.20;97.30;;;;;;5086835;28;20567;-64
2023/12/11 22:48:13;;;;;;;1.27;1.17;;;8.10;97.30;;;;;;5089776;28;20481;-63
2023/12/11 22:50:39;;;;;;;1.23;1.13;;;8.10;97.30;;;;;;5081901;28;20436;-63
2023/12/11 22:53:04;;;;;;;1.20;1.10;;;8.00;97.30;;;;;;5087069;28;20932;-63
2023/12/11 22:55:30;;;;;;;1.10;1.00;;;8.00;97.30;;;;;;5084293;28;20190;-63
2023/12/11 22:57:55;;;;;;;0.93;0.83;;;8.00;97.30;;;;;;5086779;28;20711;-63
